Time;durP1;ratioP1;P1;durP2;ratioP2;P2;SDS_P1;SDS_P2;PMS_P1;PMS_P2;Temp;Humidity;BMP_temperature;BMP_pressure;BME280_temperature;BME280_humidity;BME280_pressure;Samples;Min_cycle;Max_cycle;Signal;HPM_P1;HPM_P2
2023/08/14 00:00:57;;;;;;;0.10;0.10;;;17.70;99.90;;;;;;5030873;28;20210;-85
2023/08/14 00:03:23;;;;;;;0.10;0.10;;;17.70;99.90;;;;;;5031298;28;20686;-85
2023/08/14 00:05:49;;;;;;;0.10;0.10;;;17.50;99.90;;;;;;5036865;28;20194;-85
2023/08/14 00:08:14;;;;;;;0.10;0.10;;;17.40;99.90;;;;;;5035318;28;20202;-85
2023/08/14 00:10:40;;;;;;;0.10;0.10;;;17.50;99.90;;;;;;5027934;28;20227;-85
2023/08/14 00:13:06;;;;;;;0.10;0.10;;;17.40;99.90;;;;;;5030693;28;20241;-84
2023/08/14 00:15:31;;;;;;;0.10;0.10;;;17.60;99.90;;;;;;5043010;28;20199;-85
2023/08/14 00:17:57;;;;;;;0.10;0.10;;;17.50;99.90;;;;;;5046167;28;20318;-85
2023/08/14 00:20:22;;;;;;;0.00;0.00;;;17.50;99.90;;;;;;5030079;28;20271;-85
2023/08/14 00:22:48;;;;;;;0.00;0.00;;;17.60;99.90;;;;;;5030508;28;20192;-85
2023/08/14 00:25:13;;;;;;;0.10;0.10;;;17.70;99.90;;;;;;5043797;28;20266;-85
2023/08/14 00:27:39;;;;;;;0.10;0.10;;;17.60;99.90;;;;;;5034866;28;20195;-85
2023/08/14 00:30:05;;;;;;;0.10;0.10;;;17.70;99.90;;;;;;5037304;28;20230;-85
2023/08/14 00:32:31;;;;;;;0.10;0.10;;;17.70;99.90;;;;;;5031714;28;20191;-85
2023/08/14 00:34:56;;;;;;;0.10;0.10;;;17.80;99.90;;;;;;5034962;28;20454;-85
2023/08/14 00:37:25;;;;;;;0.07;0.07;;;17.40;99.90;;;;;;5027868;28;20238;-85
2023/08/14 00:39:50;;;;;;;0.10;0.10;;;17.40;99.90;;;;;;5027547;28;20188;-85
2023/08/14 00:42:16;;;;;;;0.07;0.07;;;17.40;99.90;;;;;;5026778;28;21443;-85
2023/08/14 00:44:41;;;;;;;0.10;0.10;;;17.40;99.90;;;;;;5030758;28;20550;-85
2023/08/14 00:47:08;;;;;;;0.00;0.00;;;17.40;99.90;;;;;;5029677;28;20199;-85
2023/08/14 00:49:34;;;;;;;0.00;0.00;;;17.40;99.90;;;;;;5035360;28;20182;-85
2023/08/14 00:52:00;;;;;;;0.10;0.10;;;17.40;99.90;;;;;;5037104;28;20485;-85
2023/08/14 00:54:26;;;;;;;0.10;0.10;;;17.40;99.90;;;;;;5021060;28;20481;-85
2023/08/14 00:56:51;;;;;;;0.10;0.10;;;17.40;99.90;;;;;;5027309;28;20481;-85
2023/08/14 00:59:17;;;;;;;0.10;0.10;;;17.30;99.90;;;;;;5029925;28;20445;-85
2023/08/14 01:01:43;;;;;;;0.10;0.10;;;17.30;99.90;;;;;;5025509;28;20201;-85
2023/08/14 01:04:08;;;;;;;0.10;0.10;;;17.30;99.90;;;;;;5028439;28;20195;-85
2023/08/14 01:06:34;;;;;;;0.10;0.10;;;17.20;99.90;;;;;;5030666;28;20179;-85
2023/08/14 01:09:00;;;;;;;0.10;0.10;;;17.10;99.90;;;;;;5027672;28;20222;-85
2023/08/14 01:11:55;;;;;;;0.10;0.10;;;17.00;99.90;;;;;;5026602;28;20194;-85
2023/08/14 01:14:28;;;;;;;0.10;0.10;;;17.00;99.90;;;;;;5034829;28;20866;-85
2023/08/14 01:16:59;;;;;;;0.10;0.10;;;17.00;99.90;;;;;;5049827;28;20484;-85
2023/08/14 01:19:34;;;;;;;0.10;0.10;;;17.00;99.90;;;;;;5030252;28;20434;-84
2023/08/14 01:22:05;;;;;;;0.10;0.10;;;17.00;99.90;;;;;;5024572;28;20861;-85
2023/08/14 01:24:55;;;;;;;0.10;0.10;;;17.00;99.90;;;;;;5017691;28;20476;-85
2023/08/14 01:27:21;;;;;;;0.10;0.10;;;17.00;99.90;;;;;;5020569;28;20536;-85
2023/08/14 01:29:56;;;;;;;0.10;0.10;;;17.00;99.90;;;;;;5027619;28;20492;-85
2023/08/14 01:32:22;;;;;;;0.10;0.10;;;17.00;99.90;;;;;;5026851;28;20445;-84
2023/08/14 01:34:47;;;;;;;0.10;0.00;;;17.10;99.90;;;;;;5029584;28;20452;-85
2023/08/14 01:37:25;;;;;;;0.10;0.10;;;17.00;99.90;;;;;;5029585;28;20246;-85
2023/08/14 01:40:03;;;;;;;0.10;0.10;;;16.90;99.90;;;;;;5028832;28;20198;-84
2023/08/14 01:42:33;;;;;;;0.10;0.10;;;16.80;99.90;;;;;;5031506;28;20453;-85
2023/08/14 01:45:04;;;;;;;0.10;0.10;;;16.60;99.90;;;;;;5036984;28;20473;-85
2023/08/14 01:47:32;;;;;;;0.10;0.10;;;16.70;99.90;;;;;;5027614;28;20872;-85
2023/08/14 01:49:59;;;;;;;0.10;0.10;;;16.70;99.90;;;;;;5027397;28;20434;-85
2023/08/14 01:52:26;;;;;;;0.10;0.10;;;16.60;99.90;;;;;;5027855;28;20457;-85
2023/08/14 01:54:51;;;;;;;0.10;0.10;;;16.60;99.90;;;;;;5027625;28;20434;-84
2023/08/14 01:57:17;;;;;;;0.10;0.10;;;16.60;99.90;;;;;;5027403;28;20497;-85
2023/08/14 01:59:45;;;;;;;0.10;0.10;;;16.60;99.90;;;;;;5021953;28;20266;-85
2023/08/14 02:02:13;;;;;;;0.10;0.10;;;16.50;99.90;;;;;;5028283;28;20835;-85
2023/08/14 02:04:39;;;;;;;0.10;0.10;;;16.40;99.90;;;;;;5028140;28;20496;-85
2023/08/14 02:07:09;;;;;;;0.10;0.10;;;16.50;99.90;;;;;;5033149;28;20858;-85
2023/08/14 02:09:35;;;;;;;0.10;0.10;;;16.50;99.90;;;;;;5026323;28;20448;-84
2023/08/14 02:12:01;;;;;;;0.10;0.10;;;16.40;99.90;;;;;;5026516;28;20969;-84
2023/08/14 02:14:27;;;;;;;0.10;0.10;;;16.40;99.90;;;;;;5026771;28;20453;-85
2023/08/14 02:16:53;;;;;;;0.10;0.10;;;16.30;99.90;;;;;;5035851;28;20222;-85
2023/08/14 02:19:18;;;;;;;0.10;0.10;;;16.10;99.90;;;;;;5031734;28;20186;-85
2023/08/14 02:21:44;;;;;;;0.10;0.10;;;16.10;99.90;;;;;;5026666;28;20203;-85
2023/08/14 02:24:10;;;;;;;0.10;0.10;;;16.00;99.90;;;;;;5028578;28;20186;-84
2023/08/14 02:26:36;;;;;;;0.10;0.10;;;16.10;99.90;;;;;;5028223;28;20920;-85
2023/08/14 02:29:02;;;;;;;0.10;0.10;;;16.00;99.90;;;;;;5027313;28;20450;-84
2023/08/14 02:31:27;;;;;;;0.10;0.10;;;16.10;99.90;;;;;;5033125;28;20441;-84
2023/08/14 02:33:58;;;;;;;0.10;0.10;;;16.20;99.90;;;;;;5026000;28;20606;-85
2023/08/14 02:36:24;;;;;;;0.10;0.10;;;16.20;99.90;;;;;;5025260;28;20234;-84
2023/08/14 02:38:49;;;;;;;0.10;0.10;;;16.30;99.90;;;;;;5030492;28;20481;-85
2023/08/14 02:41:15;;;;;;;0.10;0.10;;;16.30;99.90;;;;;;5030631;28;20237;-85
2023/08/14 02:43:40;;;;;;;0.10;0.10;;;16.30;99.90;;;;;;5027531;28;20245;-85
2023/08/14 02:46:06;;;;;;;0.10;0.10;;;16.30;99.90;;;;;;5033624;28;20621;-85
2023/08/14 02:48:31;;;;;;;0.10;0.10;;;16.30;99.90;;;;;;5026634;28;20195;-84
2023/08/14 02:50:57;;;;;;;0.10;0.10;;;16.30;99.90;;;;;;5043738;28;20261;-84
2023/08/14 02:53:22;;;;;;;0.10;0.10;;;16.30;99.90;;;;;;5027996;28;20191;-85
2023/08/14 02:55:52;;;;;;;0.10;0.10;;;16.40;99.90;;;;;;5036208;28;20199;-84
2023/08/14 02:58:18;;;;;;;0.10;0.10;;;16.30;99.90;;;;;;5025954;28;20219;-84
2023/08/14 03:00:47;;;;;;;0.10;0.10;;;16.30;99.90;;;;;;5027585;28;20477;-84
2023/08/14 03:03:13;;;;;;;0.10;0.10;;;16.30;99.90;;;;;;5029696;28;21026;-85
2023/08/14 03:05:39;;;;;;;0.10;0.10;;;16.20;99.90;;;;;;5054298;28;20434;-84
2023/08/14 03:08:05;;;;;;;0.10;0.10;;;16.10;99.90;;;;;;5035169;28;20246;-85
2023/08/14 03:10:30;;;;;;;0.10;0.10;;;16.10;99.90;;;;;;5040046;28;20441;-85
2023/08/14 03:12:57;;;;;;;0.10;0.10;;;16.10;99.90;;;;;;5031458;28;20596;-85
2023/08/14 03:15:22;;;;;;;0.10;0.10;;;16.20;99.90;;;;;;5032355;28;21144;-85
2023/08/14 03:17:48;;;;;;;0.10;0.10;;;16.10;99.90;;;;;;5048539;28;20556;-85
2023/08/14 03:20:14;;;;;;;0.10;0.10;;;16.00;99.90;;;;;;5023659;28;20192;-85
2023/08/14 03:22:40;;;;;;;0.10;0.10;;;16.00;99.90;;;;;;5014695;28;20188;-85
2023/08/14 03:25:06;;;;;;;0.10;0.10;;;16.00;99.90;;;;;;5045462;28;20445;-84
2023/08/14 03:27:32;;;;;;;0.10;0.10;;;16.00;99.90;;;;;;5035166;28;20447;-85
2023/08/14 03:29:57;;;;;;;0.10;0.10;;;15.90;99.90;;;;;;5030393;28;20239;-84
2023/08/14 03:32:23;;;;;;;0.10;0.10;;;15.90;99.90;;;;;;5029990;28;20228;-84
2023/08/14 03:34:49;;;;;;;0.10;0.10;;;15.90;99.90;;;;;;5043671;28;20193;-85
2023/08/14 03:37:14;;;;;;;0.10;0.10;;;15.80;99.90;;;;;;5025598;28;20314;-85
2023/08/14 03:39:40;;;;;;;0.10;0.10;;;15.90;99.90;;;;;;5027200;28;20200;-84
2023/08/14 03:42:05;;;;;;;0.10;0.10;;;15.90;99.90;;;;;;5045079;28;20191;-85
2023/08/14 03:44:31;;;;;;;0.10;0.10;;;15.90;99.90;;;;;;5030723;28;20175;-85
2023/08/14 03:46:57;;;;;;;0.10;0.10;;;15.90;99.90;;;;;;5031632;28;20217;-84
2023/08/14 03:49:22;;;;;;;0.10;0.10;;;15.90;99.90;;;;;;5031133;28;20241;-85
2023/08/14 03:51:48;;;;;;;0.10;0.10;;;15.90;99.90;;;;;;5046845;28;20178;-85
2023/08/14 03:54:13;;;;;;;0.10;0.10;;;15.90;99.90;;;;;;5046252;28;20214;-85
2023/08/14 03:56:39;;;;;;;0.10;0.10;;;16.00;99.90;;;;;;5030377;28;20583;-85
2023/08/14 03:59:05;;;;;;;0.10;0.10;;;16.00;99.90;;;;;;5028650;28;20187;-85
2023/08/14 04:01:31;;;;;;;0.10;0.10;;;15.90;99.90;;;;;;5028803;28;20278;-84
2023/08/14 04:03:57;;;;;;;0.10;0.10;;;15.90;99.90;;;;;;5032294;28;20497;-84
2023/08/14 04:06:22;;;;;;;0.10;0.10;;;15.90;99.90;;;;;;5032462;28;20195;-85
2023/08/14 04:08:48;;;;;;;0.10;0.10;;;15.80;99.90;;;;;;5021442;28;20185;-84
2023/08/14 04:11:13;;;;;;;0.10;0.10;;;15.80;99.90;;;;;;5033509;28;20642;-85
2023/08/14 04:13:39;;;;;;;0.10;0.10;;;15.80;99.90;;;;;;5046178;28;20650;-84
2023/08/14 04:16:05;;;;;;;0.10;0.10;;;15.80;99.90;;;;;;5036217;28;20195;-84
2023/08/14 04:18:31;;;;;;;0.10;0.10;;;15.80;99.90;;;;;;5031467;28;20191;-84
2023/08/14 04:20:57;;;;;;;0.10;0.10;;;15.90;99.90;;;;;;5044169;28;20646;-85
2023/08/14 04:23:24;;;;;;;0.10;0.10;;;15.90;99.90;;;;;;5030237;28;20522;-85
2023/08/14 04:25:50;;;;;;;0.10;0.10;;;15.90;99.90;;;;;;5028146;28;22179;-84
2023/08/14 04:28:16;;;;;;;0.10;0.10;;;15.80;99.90;;;;;;5040513;28;20451;-84
2023/08/14 04:30:42;;;;;;;0.10;0.10;;;15.80;99.90;;;;;;5023253;28;20478;-84
2023/08/14 04:33:08;;;;;;;0.10;0.10;;;15.80;99.90;;;;;;5029007;28;20647;-85
2023/08/14 04:35:33;;;;;;;0.10;0.10;;;15.90;99.90;;;;;;5047339;28;20422;-84
2023/08/14 04:37:59;;;;;;;0.10;0.10;;;15.90;99.90;;;;;;5031209;28;20212;-84
2023/08/14 04:40:24;;;;;;;0.10;0.10;;;15.90;99.90;;;;;;5030524;28;20303;-84
2023/08/14 04:42:50;;;;;;;0.10;0.10;;;15.90;99.90;;;;;;5028266;28;20250;-84
2023/08/14 04:45:15;;;;;;;0.10;0.10;;;15.90;99.90;;;;;;5042010;28;20190;-84
2023/08/14 04:47:41;;;;;;;0.10;0.10;;;16.00;99.90;;;;;;5039108;28;20191;-85
2023/08/14 04:50:07;;;;;;;0.10;0.10;;;16.00;99.90;;;;;;5050042;28;20178;-84
2023/08/14 04:52:32;;;;;;;0.10;0.10;;;16.00;99.90;;;;;;5046343;28;20218;-85
2023/08/14 04:54:58;;;;;;;0.10;0.10;;;16.00;99.90;;;;;;5029289;28;20474;-85
2023/08/14 04:57:23;;;;;;;0.10;0.10;;;16.00;99.90;;;;;;5028860;28;20585;-84
2023/08/14 04:59:49;;;;;;;0.10;0.10;;;16.00;99.90;;;;;;5045810;28;20197;-84
2023/08/14 05:02:14;;;;;;;0.10;0.10;;;16.00;99.90;;;;;;5025921;28;20200;-85
2023/08/14 05:04:40;;;;;;;0.10;0.10;;;16.10;99.90;;;;;;5024340;28;20183;-84
2023/08/14 05:07:05;;;;;;;0.10;0.10;;;16.10;99.90;;;;;;5023670;28;20687;-84
2023/08/14 05:09:31;;;;;;;0.10;0.10;;;16.10;99.90;;;;;;5027013;28;20179;-85
2023/08/14 05:12:00;;;;;;;0.10;0.10;;;16.20;99.90;;;;;;5024407;28;20195;-85
2023/08/14 05:14:26;;;;;;;0.10;0.10;;;16.20;99.90;;;;;;5028710;28;20184;-87
2023/08/14 05:16:52;;;;;;;0.10;0.10;;;16.10;99.90;;;;;;5034609;28;20494;-86
2023/08/14 05:19:17;;;;;;;0.10;0.10;;;16.20;99.90;;;;;;5036427;28;21779;-85
2023/08/14 05:21:45;;;;;;;0.10;0.10;;;16.20;99.90;;;;;;5045719;28;20686;-86
2023/08/14 05:24:11;;;;;;;0.10;0.10;;;16.20;99.90;;;;;;5011280;28;20207;-86
2023/08/14 05:26:37;;;;;;;0.10;0.10;;;16.30;99.90;;;;;;5045798;28;20445;-87
2023/08/14 05:29:03;;;;;;;0.10;0.10;;;16.40;99.90;;;;;;5028993;28;20446;-85
2023/08/14 05:31:28;;;;;;;0.10;0.10;;;16.50;99.90;;;;;;5039128;28;20279;-86
2023/08/14 05:33:54;;;;;;;0.10;0.10;;;16.50;99.90;;;;;;5022446;28;20187;-86
2023/08/14 05:36:19;;;;;;;0.10;0.10;;;16.60;99.90;;;;;;5031407;28;20223;-85
2023/08/14 05:38:45;;;;;;;0.10;0.10;;;16.70;99.90;;;;;;5028540;28;20309;-87
2023/08/14 05:41:11;;;;;;;0.10;0.10;;;16.70;99.90;;;;;;5024202;28;20640;-87
2023/08/14 05:43:36;;;;;;;0.10;0.10;;;16.70;99.90;;;;;;5032584;28;20212;-86
2023/08/14 05:46:02;;;;;;;0.10;0.10;;;16.80;99.90;;;;;;5028106;28;20191;-87
2023/08/14 05:48:27;;;;;;;0.10;0.10;;;16.90;99.90;;;;;;5025554;28;20191;-88
2023/08/14 05:50:53;;;;;;;0.10;0.10;;;17.00;99.90;;;;;;5044313;28;20180;-87
2023/08/14 05:53:18;;;;;;;0.10;0.10;;;17.00;99.90;;;;;;5044302;28;20187;-87
2023/08/14 05:55:44;;;;;;;0.10;0.10;;;17.10;99.90;;;;;;5038857;28;20616;-87
2023/08/14 05:58:09;;;;;;;0.10;0.10;;;17.20;99.90;;;;;;5035393;28;20573;-88
2023/08/14 06:00:37;;;;;;;0.10;0.10;;;17.30;99.90;;;;;;5059999;28;20793;-87
2023/08/14 06:03:03;;;;;;;0.10;0.10;;;17.40;99.90;;;;;;5028571;28;20199;-86
2023/08/14 06:05:29;;;;;;;0.10;0.10;;;17.50;99.90;;;;;;5032915;28;20874;-86
2023/08/14 06:07:55;;;;;;;0.10;0.10;;;17.50;99.90;;;;;;5044515;28;20461;-88
2023/08/14 06:10:21;;;;;;;0.10;0.10;;;17.70;99.90;;;;;;5028126;28;20210;-86
2023/08/14 06:12:49;;;;;;;0.10;0.10;;;17.70;99.90;;;;;;5046955;28;20460;-87
2023/08/14 06:15:19;;;;;;;0.10;0.10;;;17.80;99.90;;;;;;5057555;28;20475;-86
2023/08/14 06:17:45;;;;;;;0.10;0.10;;;17.90;99.90;;;;;;5041937;28;21001;-87
2023/08/14 06:20:11;;;;;;;0.10;0.00;;;17.90;99.90;;;;;;5035125;28;20437;-86
2023/08/14 06:22:44;;;;;;;0.10;0.10;;;18.00;99.90;;;;;;5025037;28;20230;-89
2023/08/14 06:25:11;;;;;;;0.10;0.10;;;18.10;99.90;;;;;;5039657;28;20458;-88
2023/08/14 06:27:38;;;;;;;0.10;0.00;;;18.10;99.90;;;;;;5028950;28;21947;-87
2023/08/14 06:30:04;;;;;;;0.10;0.10;;;18.10;99.90;;;;;;5026797;28;21010;-86
2023/08/14 06:32:30;;;;;;;0.10;0.10;;;18.20;99.90;;;;;;5028773;28;20443;-86
2023/08/14 06:34:55;;;;;;;0.10;0.10;;;18.30;99.90;;;;;;5024822;28;20859;-86
2023/08/14 06:37:21;;;;;;;0.10;0.10;;;18.40;99.90;;;;;;5028866;28;20934;-84
2023/08/14 06:39:47;;;;;;;0.10;0.00;;;18.50;99.90;;;;;;5022035;28;20198;-86
2023/08/14 06:42:12;;;;;;;0.10;0.10;;;18.50;99.90;;;;;;5027702;28;20191;-86
2023/08/14 06:44:39;;;;;;;0.10;0.10;;;18.60;99.90;;;;;;5031212;28;20191;-86
2023/08/14 06:47:06;;;;;;;0.10;0.10;;;18.70;99.90;;;;;;5051353;28;20194;-87
2023/08/14 06:49:31;;;;;;;0.10;0.00;;;18.80;99.90;;;;;;5031435;28;21214;-86
2023/08/14 06:51:57;;;;;;;0.10;0.10;;;19.00;99.90;;;;;;5028862;28;20452;-86
2023/08/14 06:54:22;;;;;;;0.10;0.10;;;19.10;99.90;;;;;;5031576;28;20191;-88
2023/08/14 06:56:48;;;;;;;0.10;0.10;;;19.10;99.90;;;;;;5032464;28;20667;-87
2023/08/14 06:59:14;;;;;;;0.10;0.00;;;19.20;99.90;;;;;;5030484;28;20191;-88
2023/08/14 07:01:39;;;;;;;0.10;0.10;;;19.20;99.90;;;;;;5034905;28;20199;-87
2023/08/14 07:04:05;;;;;;;0.10;0.10;;;19.20;99.90;;;;;;5034882;28;21755;-85
2023/08/14 07:06:31;;;;;;;0.10;0.00;;;19.40;99.90;;;;;;5040744;28;20207;-86
2023/08/14 07:08:56;;;;;;;0.10;0.00;;;19.50;99.90;;;;;;5033006;28;20203;-86
2023/08/14 07:11:22;;;;;;;0.10;0.00;;;19.60;99.90;;;;;;5050222;28;20186;-87
2023/08/14 07:13:47;;;;;;;0.10;0.07;;;19.80;99.90;;;;;;5032294;28;20553;-86
2023/08/14 07:16:13;;;;;;;0.10;0.00;;;19.80;99.90;;;;;;5031726;28;20192;-86
2023/08/14 07:18:39;;;;;;;0.10;0.00;;;19.80;99.90;;;;;;5034433;28;20691;-86
2023/08/14 07:21:04;;;;;;;0.10;0.10;;;19.90;99.90;;;;;;5049711;28;20821;-85
2023/08/14 07:23:31;;;;;;;0.10;0.00;;;20.10;99.90;;;;;;5031518;28;20446;-86
2023/08/14 07:25:59;;;;;;;0.10;0.00;;;20.20;99.90;;;;;;5044352;28;20253;-83
2023/08/14 07:28:25;;;;;;;0.10;0.00;;;20.40;99.90;;;;;;5033370;28;20471;-83
2023/08/14 07:30:51;;;;;;;0.10;0.00;;;20.50;99.90;;;;;;5021175;28;20840;-84
2023/08/14 07:33:16;;;;;;;0.10;0.00;;;20.60;99.90;;;;;;5050886;28;20463;-84
2023/08/14 07:35:42;;;;;;;0.10;0.00;;;20.70;99.90;;;;;;5038559;28;20188;-84
2023/08/14 07:38:08;;;;;;;0.10;0.00;;;20.60;99.90;;;;;;5024327;28;20228;-84
2023/08/14 07:40:33;;;;;;;0.10;0.00;;;20.70;99.90;;;;;;5025311;28;20195;-84
2023/08/14 07:42:59;;;;;;;0.10;0.00;;;20.60;99.90;;;;;;5028508;28;20446;-85
2023/08/14 07:45:25;;;;;;;0.10;0.00;;;20.50;99.90;;;;;;5034855;28;20317;-85
2023/08/14 07:47:50;;;;;;;0.10;0.00;;;20.60;99.90;;;;;;5027201;28;20306;-84
2023/08/14 07:50:16;;;;;;;0.10;0.00;;;20.60;99.90;;;;;;5039869;28;20642;-84
2023/08/14 07:52:41;;;;;;;0.10;0.00;;;20.60;99.90;;;;;;5024774;28;20218;-86
2023/08/14 07:55:07;;;;;;;0.10;0.00;;;20.60;99.90;;;;;;5029397;28;20326;-86
2023/08/14 07:57:33;;;;;;;0.10;0.00;;;20.50;99.90;;;;;;5024461;28;20258;-85
2023/08/14 07:59:58;;;;;;;0.10;0.00;;;20.50;99.90;;;;;;5046159;28;20176;-86
2023/08/14 08:02:24;;;;;;;0.10;0.00;;;20.40;99.90;;;;;;5028077;28;20661;-85
2023/08/14 08:04:50;;;;;;;0.10;0.00;;;20.60;99.90;;;;;;5030441;28;20192;-85
2023/08/14 08:07:16;;;;;;;0.10;0.00;;;20.60;99.90;;;;;;5039121;28;20195;-85
2023/08/14 08:09:41;;;;;;;0.10;0.00;;;20.80;99.90;;;;;;5030986;28;20190;-85
2023/08/14 08:12:08;;;;;;;0.10;0.00;;;20.90;99.90;;;;;;5036853;28;20480;-85
2023/08/14 08:14:35;;;;;;;0.10;0.00;;;21.00;99.90;;;;;;5029813;28;20273;-83
2023/08/14 08:17:01;;;;;;;0.10;0.00;;;21.10;99.90;;;;;;5026205;28;21040;-86
2023/08/14 08:19:27;;;;;;;0.10;0.00;;;21.20;99.90;;;;;;5028521;28;20540;-85
2023/08/14 08:21:52;;;;;;;0.10;0.00;;;21.20;99.90;;;;;;5028029;28;20462;-85
2023/08/14 08:24:18;;;;;;;0.10;0.00;;;21.20;99.90;;;;;;5030760;28;20202;-85
2023/08/14 08:26:44;;;;;;;0.10;0.00;;;21.30;99.90;;;;;;5036011;28;20191;-85
2023/08/14 08:29:09;;;;;;;0.10;0.00;;;21.40;99.90;;;;;;5031375;28;20555;-85
2023/08/14 08:31:35;;;;;;;0.10;0.00;;;21.50;99.90;;;;;;5028080;28;20676;-85
2023/08/14 08:34:00;;;;;;;0.10;0.00;;;21.50;99.90;;;;;;5033214;28;20183;-85
2023/08/14 08:36:26;;;;;;;0.10;0.00;;;21.60;99.90;;;;;;5030406;28;20318;-86
2023/08/14 08:38:51;;;;;;;0.10;0.00;;;21.80;99.90;;;;;;5027221;28;20226;-85
2023/08/14 08:41:35;;;;;;;0.10;0.00;;;22.10;99.90;;;;;;5045849;28;20203;-84
2023/08/14 08:44:05;;;;;;;0.10;0.00;;;22.10;99.90;;;;;;5028843;28;20278;-84
2023/08/14 08:46:37;;;;;;;0.10;0.00;;;22.30;99.90;;;;;;5032624;28;20481;-85
2023/08/14 08:49:07;;;;;;;0.10;0.00;;;22.40;99.90;;;;;;5026801;28;20950;-86
2023/08/14 08:51:34;;;;;;;0.10;0.00;;;22.60;99.90;;;;;;5041812;28;20533;-84
2023/08/14 08:54:01;;;;;;;0.10;0.00;;;22.70;99.90;;;;;;5043683;28;20453;-85
2023/08/14 08:56:26;;;;;;;0.10;0.00;;;22.70;99.90;;;;;;5031513;28;20832;-85
2023/08/14 08:58:53;;;;;;;0.10;0.00;;;22.60;99.90;;;;;;5050390;28;20457;-86
2023/08/14 09:01:22;;;;;;;0.10;0.00;;;22.60;99.90;;;;;;5017948;28;20271;-84
2023/08/14 09:03:47;;;;;;;0.10;0.00;;;22.80;99.90;;;;;;5017789;28;20481;-84
2023/08/14 09:06:13;;;;;;;0.10;0.00;;;23.10;99.90;;;;;;5044207;28;20473;-85
2023/08/14 09:08:40;;;;;;;0.10;0.00;;;23.20;99.90;;;;;;5045370;28;20214;-85
2023/08/14 09:11:05;;;;;;;0.10;0.00;;;23.40;99.90;;;;;;5030255;28;20445;-85
2023/08/14 09:13:31;;;;;;;0.10;0.00;;;23.70;99.90;;;;;;5032097;28;20414;-88
2023/08/14 09:15:56;;;;;;;0.07;0.00;;;23.70;99.90;;;;;;5030274;28;20196;-84
2023/08/14 09:18:22;;;;;;;0.10;0.00;;;23.50;99.90;;;;;;5028915;28;20220;-84
2023/08/14 09:20:47;;;;;;;0.10;0.00;;;23.70;99.90;;;;;;5041597;28;20191;-86
2023/08/14 09:23:13;;;;;;;0.10;0.00;;;23.70;99.90;;;;;;5028811;28;20215;-86
2023/08/14 09:25:45;;;;;;;0.10;0.00;;;23.60;99.90;;;;;;5055238;28;20179;-85
2023/08/14 09:28:11;;;;;;;0.00;0.00;;;23.70;99.90;;;;;;5032093;28;20188;-85
2023/08/14 09:30:37;;;;;;;0.00;0.00;;;23.30;99.90;;;;;;5025817;28;20561;-85
2023/08/14 09:33:08;;;;;;;0.00;0.00;;;23.50;99.90;;;;;;5030228;28;20457;-85
2023/08/14 09:35:34;;;;;;;0.10;0.00;;;23.60;99.90;;;;;;5033101;28;20448;-84
2023/08/14 09:38:00;;;;;;;0.10;0.00;;;23.90;99.90;;;;;;5035195;28;20517;-85
2023/08/14 09:40:25;;;;;;;0.10;0.00;;;23.90;99.90;;;;;;5032158;28;20436;-86
2023/08/14 09:42:52;;;;;;;0.00;0.00;;;23.90;99.90;;;;;;5027198;28;20554;-86
2023/08/14 09:45:23;;;;;;;0.00;0.00;;;24.10;99.90;;;;;;5037490;28;20256;-86
2023/08/14 09:47:50;;;;;;;0.00;0.00;;;24.30;99.90;;;;;;5026524;28;20801;-85
2023/08/14 09:50:19;;;;;;;0.00;0.00;;;24.30;99.90;;;;;;5027832;28;20452;-87
2023/08/14 09:52:45;;;;;;;0.00;0.00;;;24.10;99.90;;;;;;5042779;28;20453;-86
2023/08/14 09:55:13;;;;;;;0.00;0.00;;;24.10;99.90;;;;;;5031917;28;20437;-84
2023/08/14 09:57:39;;;;;;;0.00;0.00;;;24.50;99.90;;;;;;5050331;28;20219;-85
2023/08/14 10:00:07;;;;;;;0.00;0.00;;;24.40;99.90;;;;;;5024550;28;20446;-84
2023/08/14 10:02:33;;;;;;;0.00;0.00;;;24.80;99.90;;;;;;5027107;28;20194;-85
2023/08/14 10:05:01;;;;;;;0.00;0.00;;;25.00;99.90;;;;;;5025672;28;20834;-85
2023/08/14 10:07:27;;;;;;;0.00;0.00;;;25.10;99.90;;;;;;5034626;28;20440;-84
2023/08/14 10:09:58;;;;;;;0.00;0.00;;;25.10;99.90;;;;;;5030504;28;20446;-84
2023/08/14 10:12:28;;;;;;;0.00;0.00;;;25.30;99.90;;;;;;5020881;28;20477;-84
2023/08/14 10:15:08;;;;;;;0.00;0.00;;;25.10;99.90;;;;;;5044963;28;20430;-86
2023/08/14 10:17:50;;;;;;;0.00;0.00;;;25.10;99.90;;;;;;5027412;28;20580;-85
2023/08/14 10:20:18;;;;;;;0.00;0.00;;;25.30;99.90;;;;;;5024411;28;20449;-86
2023/08/14 10:22:45;;;;;;;0.00;0.00;;;25.20;99.90;;;;;;5030134;28;20414;-85
2023/08/14 10:25:12;;;;;;;0.00;0.00;;;25.30;99.90;;;;;;5026458;28;20855;-84
2023/08/14 10:27:38;;;;;;;0.00;0.00;;;25.70;99.90;;;;;;5024442;28;20457;-85
2023/08/14 10:30:05;;;;;;;0.00;0.00;;;25.70;99.90;;;;;;5027331;28;20558;-86
2023/08/14 10:32:31;;;;;;;0.00;0.00;;;25.40;99.90;;;;;;5027152;28;20450;-84
2023/08/14 10:34:57;;;;;;;0.00;0.00;;;25.30;99.90;;;;;;5040469;28;20505;-84
2023/08/14 10:37:43;;;;;;;0.00;0.00;;;25.50;99.90;;;;;;5045560;28;20977;-84
2023/08/14 10:40:23;;;;;;;0.00;0.00;;;25.30;99.90;;;;;;5036897;28;20426;-85
2023/08/14 10:42:55;;;;;;;0.00;0.00;;;26.00;99.90;;;;;;5024629;28;20480;-86
2023/08/14 10:45:26;;;;;;;0.00;0.00;;;26.50;99.90;;;;;;5025873;28;20422;-85
2023/08/14 10:47:57;;;;;;;0.00;0.00;;;26.10;99.90;;;;;;5025551;28;20528;-89
2023/08/14 10:50:25;;;;;;;0.00;0.00;;;25.70;99.90;;;;;;5037883;28;20417;-86
2023/08/14 10:52:52;;;;;;;0.00;0.00;;;25.80;99.90;;;;;;5027203;28;20512;-85
2023/08/14 10:55:34;;;;;;;0.00;0.00;;;25.90;99.90;;;;;;5028715;28;20583;-85
2023/08/14 10:57:59;;;;;;;0.00;0.00;;;25.60;99.90;;;;;;5032585;28;20545;-86
2023/08/14 11:00:26;;;;;;;0.00;0.00;;;25.40;99.90;;;;;;5030266;28;20456;-86
2023/08/14 11:03:12;;;;;;;0.00;0.00;;;25.20;99.90;;;;;;5029635;28;20215;-84
2023/08/14 11:05:39;;;;;;;0.00;0.00;;;25.00;99.90;;;;;;5036725;28;20801;-87
2023/08/14 11:08:10;;;;;;;0.00;0.00;;;24.70;99.90;;;;;;5030088;28;20499;-86
2023/08/14 11:10:36;;;;;;;0.00;0.00;;;24.70;99.90;;;;;;5030716;28;20430;-86
2023/08/14 11:13:06;;;;;;;0.00;0.00;;;24.90;99.90;;;;;;5025884;28;20520;-86
2023/08/14 11:15:32;;;;;;;0.00;0.00;;;25.30;99.90;;;;;;5028139;28;20465;-86
2023/08/14 11:17:59;;;;;;;0.00;0.00;;;25.80;99.90;;;;;;5023473;28;20484;-84
2023/08/14 11:20:29;;;;;;;0.00;0.00;;;26.60;99.90;;;;;;5044193;28;20434;-85
2023/08/14 11:22:55;;;;;;;0.00;0.00;;;27.20;99.90;;;;;;5036669;28;20450;-86
2023/08/14 11:25:21;;;;;;;0.00;0.00;;;27.30;99.90;;;;;;5030643;28;20949;-85
2023/08/14 11:27:49;;;;;;;0.00;0.00;;;27.10;99.90;;;;;;5029189;28;20646;-87
2023/08/14 11:30:16;;;;;;;0.00;0.00;;;26.60;99.90;;;;;;5041078;28;20531;-86
2023/08/14 11:32:42;;;;;;;0.00;0.00;;;26.50;99.90;;;;;;5030457;28;20453;-84
2023/08/14 11:35:08;;;;;;;0.00;0.00;;;27.50;99.90;;;;;;5046611;28;20433;-87
2023/08/14 11:37:34;;;;;;;0.00;0.00;;;28.20;99.90;;;;;;5031808;28;20215;-85
2023/08/14 11:40:11;;;;;;;0.00;0.00;;;28.70;99.90;;;;;;5016038;28;20978;-84
2023/08/14 11:42:39;;;;;;;0.00;0.00;;;29.20;99.90;;;;;;5046446;28;20651;-82
2023/08/14 11:45:06;;;;;;;0.00;0.00;;;30.20;99.90;;;;;;5014265;28;20961;-82
2023/08/14 11:47:33;;;;;;;0.00;0.00;;;30.40;99.90;;;;;;5036976;28;20434;-83
2023/08/14 11:50:02;;;;;;;0.00;0.00;;;30.00;99.90;;;;;;5037033;28;20442;-86
2023/08/14 11:52:28;;;;;;;0.00;0.00;;;29.60;99.90;;;;;;5032750;28;20557;-87
2023/08/14 11:54:56;;;;;;;0.00;0.00;;;29.60;99.90;;;;;;5026492;28;20523;-85
2023/08/14 11:57:26;;;;;;;0.00;0.00;;;29.80;99.90;;;;;;5033702;28;20528;-87
2023/08/14 11:59:56;;;;;;;0.00;0.00;;;30.70;99.90;;;;;;5030829;28;20835;-86
2023/08/14 12:02:26;;;;;;;0.00;0.00;;;30.50;99.90;;;;;;5036279;28;20477;-84
2023/08/14 12:04:56;;;;;;;0.00;0.00;;;29.70;99.90;;;;;;5035311;28;20444;-85
2023/08/14 12:07:24;;;;;;;0.00;0.00;;;29.60;99.90;;;;;;5047686;28;20456;-86
2023/08/14 12:09:53;;;;;;;0.00;0.00;;;29.00;99.90;;;;;;5033934;28;20437;-85
2023/08/14 12:12:19;;;;;;;0.00;0.00;;;27.80;99.90;;;;;;5031559;28;20537;-87
2023/08/14 12:14:46;;;;;;;0.00;0.00;;;27.10;99.90;;;;;;5030283;28;20557;-86
2023/08/14 12:17:13;;;;;;;0.00;0.00;;;27.00;99.90;;;;;;5030478;28;20222;-81
2023/08/14 12:19:39;;;;;;;0.00;0.00;;;28.80;99.90;;;;;;5014938;28;20932;-83
2023/08/14 12:22:08;;;;;;;0.00;0.00;;;29.20;99.90;;;;;;5020090;28;20433;-84
2023/08/14 12:24:42;;;;;;;0.00;0.00;;;29.80;99.90;;;;;;5030038;28;20643;-82
2023/08/14 12:27:14;;;;;;;0.00;0.00;;;30.30;99.90;;;;;;5030557;28;20485;-85
2023/08/14 12:29:40;;;;;;;0.00;0.00;;;30.50;99.90;;;;;;5030553;28;20485;-82
2023/08/14 12:32:05;;;;;;;0.00;0.00;;;30.30;99.90;;;;;;5030024;28;20430;-82
2023/08/14 12:34:31;;;;;;;0.00;0.00;;;30.50;99.90;;;;;;5028100;28;20179;-83
2023/08/14 12:36:56;;;;;;;0.00;0.00;;;29.20;99.90;;;;;;5053279;28;20261;-85
2023/08/14 12:39:22;;;;;;;0.00;0.00;;;28.90;99.90;;;;;;5052227;28;20218;-85
2023/08/14 12:41:47;;;;;;;0.00;0.00;;;28.70;99.90;;;;;;5028237;28;20303;-84
2023/08/14 12:44:13;;;;;;;0.00;0.00;;;29.00;99.90;;;;;;5043117;28;20179;-87
2023/08/14 12:46:38;;;;;;;0.00;0.00;;;29.40;99.90;;;;;;5041821;28;20224;-85